createdAt,value
2017-09-01T00:01:36.077Z,100263.58
2017-09-01T00:04:02.179Z,100262.69
2017-09-01T00:06:28.295Z,100258.20
2017-09-01T00:08:54.386Z,100257.17
2017-09-01T00:11:20.519Z,100260.38
2017-09-01T00:13:46.568Z,100257.14
2017-09-01T00:16:12.650Z,100258.28
2017-09-01T00:18:38.719Z,100255.62
2017-09-01T00:21:04.811Z,100252.88
2017-09-01T00:23:30.887Z,100252.77
2017-09-01T00:25:56.998Z,100253.66
2017-09-01T00:28:23.091Z,100253.70
2017-09-01T00:30:49.954Z,100253.98
2017-09-01T00:33:16.034Z,100256.66
2017-09-01T00:35:42.101Z,100250.91
2017-09-01T00:38:08.195Z,100258.86
2017-09-01T00:40:34.278Z,100256.67
2017-09-01T00:43:00.374Z,100253.30
2017-09-01T00:45:26.447Z,100244.02
2017-09-01T00:47:52.527Z,100247.34
2017-09-01T00:50:18.871Z,100238.84
2017-09-01T00:52:44.961Z,100244.81
2017-09-01T00:55:11.074Z,100249.33
2017-09-01T00:57:37.119Z,100255.45
2017-09-01T01:00:03.210Z,100258.00
2017-09-01T01:02:29.312Z,100262.14
2017-09-01T01:04:55.427Z,100265.34
2017-09-01T01:07:21.538Z,100266.63
2017-09-01T01:09:47.649Z,100264.06
2017-09-01T01:12:13.789Z,100261.19
2017-09-01T01:14:39.901Z,100258.59
2017-09-01T01:17:06.011Z,100248.78
2017-09-01T01:19:32.071Z,100253.69
2017-09-01T01:21:58.152Z,100248.72
2017-09-01T01:24:24.248Z,100243.99
2017-09-01T01:26:50.325Z,100240.30
2017-09-01T01:29:16.422Z,100246.78
2017-09-01T01:31:42.500Z,100242.38
2017-09-01T01:34:08.617Z,100238.36
2017-09-01T01:36:35.696Z,100236.36
2017-09-01T01:39:01.791Z,100239.84
2017-09-01T01:41:27.860Z,100236.11
2017-09-01T01:43:53.946Z,100246.30
2017-09-01T01:46:20.010Z,100251.66
2017-09-01T01:48:46.088Z,100252.50
2017-09-01T01:51:12.183Z,100242.91
2017-09-01T01:53:38.260Z,100243.00
2017-09-01T01:56:04.365Z,100239.95
2017-09-01T01:58:30.472Z,100244.14
2017-09-01T02:00:56.588Z,100239.96
2017-09-01T02:03:22.661Z,100239.56
2017-09-01T02:05:48.764Z,100239.94
2017-09-01T02:08:14.920Z,100244.09
2017-09-01T02:10:41.011Z,100242.09
2017-09-01T02:13:07.111Z,100237.13
2017-09-01T02:15:33.209Z,100235.89
2017-09-01T02:17:59.280Z,100238.11
2017-09-01T02:20:25.347Z,100229.92
2017-09-01T02:22:51.412Z,100230.06
2017-09-01T02:25:17.505Z,100231.64
2017-09-01T02:27:43.576Z,100237.75
2017-09-01T02:30:09.641Z,100242.11
2017-09-01T02:32:35.732Z,100244.08
2017-09-01T02:35:01.846Z,100248.11
2017-09-01T02:37:27.918Z,100247.61
2017-09-01T02:39:53.988Z,100249.50
2017-09-01T02:42:20.051Z,100249.84
2017-09-01T02:44:46.784Z,100255.48
2017-09-01T02:47:12.863Z,100250.75
2017-09-01T02:49:38.954Z,100256.80
2017-09-01T02:52:05.028Z,100255.95
2017-09-01T02:54:31.120Z,100261.70
2017-09-01T02:56:57.233Z,100269.70
2017-09-01T02:59:23.272Z,100269.44
2017-09-01T03:01:49.353Z,100266.28
2017-09-01T03:04:15.472Z,100267.15
2017-09-01T03:06:41.539Z,100265.56
2017-09-01T03:09:07.628Z,100265.64
2017-09-01T03:11:33.718Z,100270.41
2017-09-01T03:13:59.813Z,100267.13
2017-09-01T03:16:25.944Z,100262.65
2017-09-01T03:18:52.092Z,100268.17
2017-09-01T03:21:18.153Z,100271.58
2017-09-01T03:23:44.237Z,100268.52
2017-09-01T03:26:10.305Z,100261.44
2017-09-01T03:28:36.531Z,100260.72
2017-09-01T03:31:02.625Z,100265.87
2017-09-01T03:33:28.738Z,100257.52
2017-09-01T03:35:54.865Z,100251.91
2017-09-01T03:38:20.972Z,100244.58
2017-09-01T03:40:47.068Z,100248.02
2017-09-01T03:43:13.168Z,100252.46
2017-09-01T03:45:39.216Z,100251.36
2017-09-01T03:48:05.373Z,100252.51
2017-09-01T03:50:31.533Z,100254.59
2017-09-01T03:52:57.648Z,100258.94
2017-09-01T03:55:23.743Z,100259.07
2017-09-01T03:57:49.853Z,100255.86
2017-09-01T04:00:15.951Z,100254.61
2017-09-01T04:02:42.040Z,100256.27
2017-09-01T04:05:08.140Z,100244.33
2017-09-01T04:07:34.184Z,100244.81
2017-09-01T04:10:00.292Z,100242.31
2017-09-01T04:12:26.413Z,100239.52
2017-09-01T04:14:52.541Z,100242.84
2017-09-01T04:17:18.637Z,100243.02
2017-09-01T04:19:44.748Z,100245.90
2017-09-01T04:22:10.821Z,100241.64
2017-09-01T04:24:36.912Z,100246.17
2017-09-01T04:27:03.042Z,100245.19
2017-09-01T04:29:29.110Z,100248.91
2017-09-01T04:31:55.174Z,100246.02
2017-09-01T04:34:21.268Z,100251.95
2017-09-01T04:36:47.598Z,100254.94
2017-09-01T04:39:13.692Z,100254.79
2017-09-01T04:41:39.865Z,100257.35
2017-09-01T04:44:05.946Z,100255.70
2017-09-01T04:46:32.034Z,100250.77
2017-09-01T04:48:58.171Z,100256.19
2017-09-01T04:51:24.253Z,100254.77
2017-09-01T04:53:50.356Z,100255.83
2017-09-01T04:56:16.459Z,100256.94
2017-09-01T04:58:42.530Z,100269.41
2017-09-01T05:01:08.715Z,100267.50
2017-09-01T05:03:34.794Z,100272.38
2017-09-01T05:06:00.894Z,100275.89
2017-09-01T05:08:26.973Z,100280.52
2017-09-01T05:10:53.058Z,100278.12
2017-09-01T05:13:19.174Z,100275.70
2017-09-01T05:15:45.277Z,100269.09
2017-09-01T05:18:11.370Z,100271.13
2017-09-01T05:20:37.485Z,100273.46
2017-09-01T05:23:03.576Z,100271.77
2017-09-01T05:25:29.680Z,100270.23
2017-09-01T05:27:55.785Z,100271.49
2017-09-01T05:30:21.878Z,100276.34
2017-09-01T05:32:47.977Z,100271.34
2017-09-01T05:35:14.080Z,100280.70
2017-09-01T05:37:40.179Z,100278.47
2017-09-01T05:40:06.306Z,100284.33
2017-09-01T05:42:33.196Z,100286.47
2017-09-01T05:44:59.295Z,100279.88
2017-09-01T05:47:25.397Z,100278.42
2017-09-01T05:49:51.458Z,100285.64
2017-09-01T05:52:17.586Z,100287.23
2017-09-01T05:54:43.669Z,100290.09
2017-09-01T05:57:09.742Z,100290.20
2017-09-01T05:59:35.883Z,100291.18
2017-09-01T06:02:01.993Z,100288.48
2017-09-01T06:04:28.168Z,100286.80
2017-09-01T06:07:01.453Z,100285.16
2017-09-01T06:09:27.555Z,100281.88
2017-09-01T06:11:53.634Z,100286.07
2017-09-01T06:14:19.741Z,100284.84
2017-09-01T06:16:45.840Z,100290.19
2017-09-01T06:19:12.291Z,100285.22
2017-09-01T06:21:38.382Z,100288.75
2017-09-01T06:24:04.456Z,100288.72
2017-09-01T06:26:30.546Z,100292.67
2017-09-01T06:28:56.632Z,100287.87
2017-09-01T06:31:22.716Z,100281.59
2017-09-01T06:33:48.844Z,100285.41
2017-09-01T06:36:14.928Z,100286.30
2017-09-01T06:38:41.055Z,100291.52
2017-09-01T06:41:07.143Z,100293.44
2017-09-01T06:43:33.245Z,100290.17
2017-09-01T06:45:59.327Z,100281.61
2017-09-01T06:48:25.467Z,100284.45
2017-09-01T06:50:51.550Z,100292.73
2017-09-01T06:53:17.668Z,100290.23
2017-09-01T06:55:43.748Z,100287.20
2017-09-01T06:58:09.824Z,100289.23
2017-09-01T07:00:35.928Z,100286.17
2017-09-01T07:03:01.988Z,100287.53
2017-09-01T07:05:28.056Z,100291.23
2017-09-01T07:07:54.146Z,100284.76
2017-09-01T07:10:20.244Z,100289.57
2017-09-01T07:12:46.367Z,100286.27
2017-09-01T07:15:12.426Z,100281.98
2017-09-01T07:17:38.504Z,100280.02
2017-09-01T07:20:04.640Z,100280.30
2017-09-01T07:22:30.728Z,100286.05
2017-09-01T07:24:56.807Z,100290.76
2017-09-01T07:27:22.923Z,100289.86
2017-09-01T07:29:49.026Z,100291.13
2017-09-01T07:32:15.113Z,100292.98
2017-09-01T07:34:41.217Z,100293.61
2017-09-01T07:37:07.276Z,100296.84
2017-09-01T07:39:33.365Z,100290.57
2017-09-01T07:41:59.448Z,100293.77
2017-09-01T07:44:25.514Z,100295.70
2017-09-01T07:46:51.651Z,100287.81
2017-09-01T07:49:17.737Z,100291.92
2017-09-01T07:51:43.786Z,100291.59
2017-09-01T07:54:09.850Z,100285.19
2017-09-01T07:56:35.952Z,100273.94
2017-09-01T07:59:02.008Z,100268.38
2017-09-01T08:01:28.124Z,100282.52
2017-09-01T08:03:54.166Z,100293.98
2017-09-01T08:06:20.251Z,100296.23
2017-09-01T08:08:46.329Z,100292.72
2017-09-01T08:11:12.387Z,100293.90
2017-09-01T08:13:38.493Z,100293.90
2017-09-01T08:16:04.562Z,100293.05
2017-09-01T08:18:30.632Z,100289.09
2017-09-01T08:20:56.788Z,100281.93
2017-09-01T08:23:22.913Z,100275.55
2017-09-01T08:25:48.998Z,100276.58
2017-09-01T08:28:15.096Z,100274.16
2017-09-01T08:30:41.218Z,100274.97
2017-09-01T08:33:07.304Z,100280.06
2017-09-01T08:35:33.415Z,100280.06
2017-09-01T08:37:59.506Z,100282.25
2017-09-01T08:40:25.598Z,100282.50
2017-09-01T08:42:51.726Z,100289.50
2017-09-01T08:45:17.802Z,100287.73
2017-09-01T08:47:43.892Z,100285.81
2017-09-01T08:50:09.990Z,100287.30
2017-09-01T08:52:36.081Z,100286.05
2017-09-01T08:55:02.189Z,100286.78
2017-09-01T08:57:29.135Z,100286.08
2017-09-01T08:59:55.204Z,100291.25
2017-09-01T09:02:21.287Z,100295.09
2017-09-01T09:04:47.387Z,100296.72
2017-09-01T09:07:13.484Z,100298.02
2017-09-01T09:09:39.755Z,100289.69
2017-09-01T09:12:05.821Z,100292.35
2017-09-01T09:14:31.915Z,100297.11
2017-09-01T09:16:58.036Z,100305.56
2017-09-01T09:19:24.107Z,100300.48
2017-09-01T09:21:50.220Z,100298.48
2017-09-01T09:24:16.315Z,100298.89
2017-09-01T09:26:42.404Z,100313.64
2017-09-01T09:29:08.525Z,100308.14
2017-09-01T09:31:34.610Z,100316.00
2017-09-01T09:34:00.677Z,100315.19
2017-09-01T09:36:26.809Z,100318.63
2017-09-01T09:38:52.925Z,100324.19
2017-09-01T09:41:19.060Z,100323.12
2017-09-01T09:43:45.158Z,100320.41
2017-09-01T09:46:11.245Z,100312.41
2017-09-01T09:48:37.371Z,100310.08
2017-09-01T09:51:03.449Z,100298.42
2017-09-01T09:53:29.552Z,100299.84
2017-09-01T09:55:55.619Z,100298.91
2017-09-01T09:58:21.699Z,100294.45
2017-09-01T10:00:47.853Z,100287.98
2017-09-01T10:03:13.953Z,100288.20
2017-09-01T10:05:40.356Z,100290.77
2017-09-01T10:08:06.435Z,100284.69
2017-09-01T10:10:32.984Z,100284.23
2017-09-01T10:12:59.067Z,100291.52
2017-09-01T10:15:25.129Z,100289.16
2017-09-01T10:17:51.228Z,100293.72
2017-09-01T10:20:17.338Z,100289.17
2017-09-01T10:22:43.475Z,100291.48
2017-09-01T10:25:09.560Z,100294.57
2017-09-01T10:27:35.689Z,100296.77
2017-09-01T10:30:01.794Z,100298.36
2017-09-01T10:32:27.885Z,100295.31
2017-09-01T10:34:54.055Z,100304.14
2017-09-01T10:37:20.194Z,100300.36
2017-09-01T10:39:46.284Z,100303.67
2017-09-01T10:42:12.372Z,100303.23
2017-09-01T10:44:38.457Z,100304.65
2017-09-01T10:47:04.578Z,100306.86
2017-09-01T10:49:49.384Z,100310.42
2017-09-01T10:52:34.141Z,100313.14
2017-09-01T10:55:19.116Z,100309.38
2017-09-01T10:58:03.980Z,100324.45
2017-09-01T11:00:30.062Z,100320.59
2017-09-01T11:02:56.179Z,100328.77
2017-09-01T11:05:22.301Z,100327.57
2017-09-01T11:07:48.409Z,100329.09
2017-09-01T11:10:14.555Z,100330.91
2017-09-01T11:12:40.745Z,100332.42
2017-09-01T11:15:06.875Z,100338.48
2017-09-01T11:17:33.060Z,100338.50
2017-09-01T11:20:05.486Z,100338.98
2017-09-01T11:25:41.893Z,100336.89
2017-09-01T11:28:08.012Z,100337.47
2017-09-01T11:30:34.101Z,100335.78
2017-09-01T11:33:00.325Z,100343.95
2017-09-01T11:35:26.490Z,100335.56
2017-09-01T11:37:52.619Z,100332.64
2017-09-01T11:40:18.704Z,100334.67
2017-09-01T11:42:44.863Z,100338.97
2017-09-01T11:45:10.957Z,100338.91
2017-09-01T11:47:37.134Z,100334.40
2017-09-01T11:50:03.268Z,100327.80
2017-09-01T11:52:29.468Z,100330.45
2017-09-01T11:54:55.561Z,100330.21
2017-09-01T11:57:21.792Z,100316.83
2017-09-01T11:59:47.885Z,100325.67
2017-09-01T12:02:14.099Z,100322.06
2017-09-01T12:04:40.214Z,100334.34
2017-09-01T12:07:06.324Z,100330.95
2017-09-01T12:09:32.451Z,100328.24
2017-09-01T12:11:58.920Z,100327.19
2017-09-01T12:14:25.059Z,100322.34
2017-09-01T12:16:51.169Z,100316.31
2017-09-01T12:19:17.241Z,100315.29
2017-09-01T12:21:43.391Z,100305.67
2017-09-01T12:24:10.429Z,100307.43
2017-09-01T12:26:36.567Z,100307.31
2017-09-01T12:29:02.722Z,100305.83
2017-09-01T12:31:28.877Z,100309.41
2017-09-01T12:33:54.983Z,100298.40
2017-09-01T12:36:21.065Z,100293.55
2017-09-01T12:38:47.215Z,100298.28
2017-09-01T12:41:13.307Z,100292.41
2017-09-01T12:43:39.455Z,100291.44
2017-09-01T12:46:05.595Z,100291.24
2017-09-01T12:48:32.342Z,100288.91
2017-09-01T12:50:58.463Z,100288.63
2017-09-01T12:53:24.826Z,100285.64
2017-09-01T12:55:50.995Z,100284.19
2017-09-01T12:58:17.089Z,100291.02
2017-09-01T13:00:43.185Z,100296.29
2017-09-01T13:03:09.289Z,100293.52
2017-09-01T13:05:35.397Z,100293.84
2017-09-01T13:08:01.519Z,100298.35
2017-09-01T13:10:27.599Z,100292.89
2017-09-01T13:12:53.705Z,100291.07
2017-09-01T13:15:19.997Z,100282.52
2017-09-01T13:17:46.084Z,100286.80
2017-09-01T13:20:12.225Z,100289.16
2017-09-01T13:22:38.343Z,100282.43
2017-09-01T13:25:04.435Z,100275.48
2017-09-01T13:27:30.523Z,100267.98
2017-09-01T13:29:56.675Z,100262.66
2017-09-01T13:32:22.812Z,100249.80
2017-09-01T13:34:48.949Z,100253.13
2017-09-01T13:37:15.034Z,100252.33
2017-09-01T13:39:41.131Z,100255.67
2017-09-01T13:42:07.246Z,100253.18
2017-09-01T13:44:33.373Z,100238.81
2017-09-01T13:46:59.467Z,100235.30
2017-09-01T13:49:25.565Z,100242.25
2017-09-01T13:51:51.722Z,100245.11
2017-09-01T13:54:17.821Z,100248.83
2017-09-01T13:56:44.151Z,100244.85
2017-09-01T13:59:17.075Z,100245.39
2017-09-01T14:01:43.180Z,100249.49
2017-09-01T14:04:16.222Z,100256.05
2017-09-01T14:06:42.320Z,100248.45
2017-09-01T14:09:08.400Z,100256.53
2017-09-01T14:11:34.513Z,100255.55
2017-09-01T14:14:00.596Z,100255.31
2017-09-01T14:16:26.726Z,100252.10
2017-09-01T14:18:52.870Z,100256.70
2017-09-01T14:21:18.944Z,100257.82
2017-09-01T14:23:45.006Z,100261.66
2017-09-01T14:26:11.108Z,100262.80
2017-09-01T14:28:37.183Z,100262.69
2017-09-01T14:31:03.375Z,100253.42
2017-09-01T14:33:29.508Z,100253.11
2017-09-01T14:35:55.569Z,100242.12
2017-09-01T14:38:21.678Z,100253.30
2017-09-01T14:40:47.795Z,100258.25
2017-09-01T14:43:14.055Z,100259.84
2017-09-01T14:45:40.146Z,100256.45
2017-09-01T14:48:06.234Z,100251.17
2017-09-01T14:50:32.320Z,100246.38
2017-09-01T14:52:58.398Z,100246.09
2017-09-01T14:55:24.569Z,100237.52
2017-09-01T14:57:50.727Z,100233.00
2017-09-01T15:00:16.824Z,100229.67
2017-09-01T15:02:43.032Z,100228.14
2017-09-01T15:05:09.128Z,100224.05
2017-09-01T15:07:35.226Z,100230.86
2017-09-01T15:10:01.334Z,100228.33
2017-09-01T15:12:27.426Z,100231.22
2017-09-01T15:14:53.620Z,100237.45
2017-09-01T15:17:19.709Z,100247.59
2017-09-01T15:19:45.824Z,100246.80
2017-09-01T15:22:11.950Z,100240.91
2017-09-01T15:24:38.082Z,100239.75
2017-09-01T15:27:11.255Z,100237.67
2017-09-01T15:29:37.355Z,100233.23
2017-09-01T15:32:05.443Z,100230.48
2017-09-01T15:34:31.539Z,100237.71
2017-09-01T15:36:57.596Z,100235.78
2017-09-01T15:39:23.726Z,100219.48
2017-09-01T15:41:49.888Z,100223.94
2017-09-01T15:44:15.968Z,100218.11
2017-09-01T15:46:42.051Z,100220.06
2017-09-01T15:49:08.135Z,100220.86
2017-09-01T15:51:34.391Z,100213.16
2017-09-01T15:54:00.539Z,100215.48
2017-09-01T15:56:26.646Z,100211.06
2017-09-01T15:58:52.792Z,100226.97
2017-09-01T16:01:19.077Z,100228.06
2017-09-01T16:03:45.231Z,100244.91
2017-09-01T16:06:11.317Z,100234.08
2017-09-01T16:08:37.469Z,100229.44
2017-09-01T16:11:03.578Z,100219.79
2017-09-01T16:13:29.708Z,100220.28
2017-09-01T16:15:55.866Z,100221.38
2017-09-01T16:18:21.971Z,100226.44
2017-09-01T16:20:48.086Z,100219.55
2017-09-01T16:23:14.220Z,100215.77
2017-09-01T16:25:40.335Z,100211.08
2017-09-01T16:28:06.458Z,100211.22
2017-09-01T16:30:32.623Z,100213.66
2017-09-01T16:32:58.710Z,100209.86
2017-09-01T16:35:24.814Z,100214.30
2017-09-01T16:37:50.901Z,100218.34
2017-09-01T16:40:16.996Z,100224.93
2017-09-01T16:42:43.121Z,100214.19
2017-09-01T16:45:09.218Z,100219.41
2017-09-01T16:47:35.338Z,100215.34
2017-09-01T16:50:01.436Z,100221.31
2017-09-01T16:52:27.555Z,100221.20
2017-09-01T16:54:53.731Z,100221.77
2017-09-01T16:57:19.878Z,100225.52
2017-09-01T16:59:45.962Z,100226.22
2017-09-01T17:02:12.101Z,100216.81
2017-09-01T17:04:38.261Z,100207.97
2017-09-01T17:07:04.385Z,100203.63
2017-09-01T17:09:30.614Z,100202.23
2017-09-01T17:11:56.738Z,100197.06
2017-09-01T17:14:22.813Z,100192.75
2017-09-01T17:16:48.908Z,100183.88
2017-09-01T17:19:15.012Z,100197.77
2017-09-01T17:21:41.114Z,100193.05
2017-09-01T17:24:07.250Z,100203.52
2017-09-01T17:26:33.390Z,100211.61
2017-09-01T17:28:59.481Z,100222.51
2017-09-01T17:31:25.562Z,100219.94
2017-09-01T17:33:51.680Z,100218.19
2017-09-01T17:36:17.768Z,100218.53
2017-09-01T17:38:43.859Z,100221.64
2017-09-01T17:41:09.961Z,100234.64
2017-09-01T17:43:36.352Z,100244.11
2017-09-01T17:46:02.452Z,100249.98
2017-09-01T17:48:28.546Z,100255.08
2017-09-01T17:50:54.656Z,100251.81
2017-09-01T17:53:20.754Z,100259.16
2017-09-01T17:55:46.820Z,100254.13
2017-09-01T17:58:12.937Z,100256.88
2017-09-01T18:00:39.024Z,100265.66
2017-09-01T18:03:05.152Z,100263.88
2017-09-01T18:05:31.252Z,100266.66
2017-09-01T18:07:57.369Z,100260.66
2017-09-01T18:10:23.470Z,100260.56
2017-09-01T18:12:49.606Z,100259.44
2017-09-01T18:15:16.094Z,100267.30
2017-09-01T18:17:42.542Z,100265.50
2017-09-01T18:20:08.647Z,100255.38
2017-09-01T18:22:34.798Z,100254.74
2017-09-01T18:25:00.898Z,100258.89
2017-09-01T18:27:26.971Z,100259.86
2017-09-01T18:29:53.132Z,100255.55
2017-09-01T18:32:19.233Z,100272.75
2017-09-01T18:34:45.394Z,100262.27
2017-09-01T18:37:11.723Z,100265.80
2017-09-01T18:39:37.876Z,100256.33
2017-09-01T18:42:03.977Z,100250.47
2017-09-01T18:44:30.100Z,100253.00
2017-09-01T18:46:56.202Z,100239.53
2017-09-01T18:49:22.566Z,100243.42
2017-09-01T18:51:48.679Z,100242.84
2017-09-01T18:54:14.844Z,100243.77
2017-09-01T18:56:40.971Z,100246.22
2017-09-01T18:59:07.100Z,100244.81
2017-09-01T19:01:33.207Z,100250.67
2017-09-01T19:03:59.294Z,100248.64
2017-09-01T19:06:25.463Z,100239.41
2017-09-01T19:08:51.606Z,100239.52
2017-09-01T19:11:17.730Z,100233.44
2017-09-01T19:13:43.873Z,100227.92
2017-09-01T19:16:09.986Z,100228.35
2017-09-01T19:18:36.078Z,100228.19
2017-09-01T19:21:02.437Z,100227.41
2017-09-01T19:23:28.561Z,100221.22
2017-09-01T19:25:54.683Z,100225.48
2017-09-01T19:28:20.831Z,100224.15
2017-09-01T19:30:46.892Z,100231.03
2017-09-01T19:33:12.979Z,100229.61
2017-09-01T19:35:39.060Z,100237.71
2017-09-01T19:38:05.144Z,100239.12
2017-09-01T19:40:31.270Z,100238.22
2017-09-01T19:42:57.362Z,100240.16
2017-09-01T19:45:23.468Z,100244.37
2017-09-01T19:47:49.599Z,100245.59
2017-09-01T19:50:15.711Z,100249.28
2017-09-01T19:52:42.255Z,100241.09
2017-09-01T19:55:08.349Z,100235.06
2017-09-01T19:57:34.427Z,100233.95
2017-09-01T20:00:00.541Z,100243.42
2017-09-01T20:02:26.639Z,100240.50
2017-09-01T20:04:52.787Z,100234.65
2017-09-01T20:07:18.902Z,100229.20
2017-09-01T20:09:45.029Z,100227.10
2017-09-01T20:12:11.175Z,100225.52
2017-09-01T20:14:37.263Z,100229.78
2017-09-01T20:17:03.414Z,100222.38
2017-09-01T20:19:29.506Z,100212.17
2017-09-01T20:21:55.776Z,100214.36
2017-09-01T20:24:21.901Z,100205.13
2017-09-01T20:26:48.011Z,100201.45
2017-09-01T20:29:14.134Z,100193.91
2017-09-01T20:31:40.235Z,100196.02
2017-09-01T20:34:07.395Z,100190.30
2017-09-01T20:36:33.477Z,100179.56
2017-09-01T20:38:59.594Z,100179.28
2017-09-01T20:41:25.755Z,100171.84
2017-09-01T20:43:52.403Z,100179.22
2017-09-01T20:46:18.527Z,100185.09
2017-09-01T20:48:44.692Z,100189.11
2017-09-01T20:51:10.994Z,100187.10
2017-09-01T20:53:37.185Z,100194.31
2017-09-01T20:56:03.322Z,100197.93
2017-09-01T20:58:29.432Z,100198.16
2017-09-01T21:00:55.802Z,100193.83
2017-09-01T21:03:21.916Z,100191.89
2017-09-01T21:05:48.061Z,100191.52
2017-09-01T21:08:14.156Z,100185.98
2017-09-01T21:10:40.278Z,100191.81
2017-09-01T21:13:06.454Z,100193.97
2017-09-01T21:15:32.591Z,100197.16
2017-09-01T21:17:58.768Z,100200.53
2017-09-01T21:20:24.942Z,100203.45
2017-09-01T21:22:51.069Z,100199.84
2017-09-01T21:25:17.196Z,100196.97
2017-09-01T21:27:43.259Z,100201.19
2017-09-01T21:30:09.383Z,100202.86
2017-09-01T21:32:35.986Z,100201.36
2017-09-01T21:35:02.106Z,100205.79
2017-09-01T21:37:28.224Z,100208.16
2017-09-01T21:39:54.317Z,100213.69
2017-09-01T21:42:20.407Z,100222.48
2017-09-01T21:44:46.598Z,100220.30
2017-09-01T21:47:12.868Z,100221.15
2017-09-01T21:49:38.960Z,100226.16
2017-09-01T21:52:05.071Z,100226.93
2017-09-01T21:54:31.198Z,100217.85
2017-09-01T21:56:57.291Z,100210.14
2017-09-01T21:59:23.398Z,100217.13
2017-09-01T22:01:49.508Z,100199.42
2017-09-01T22:04:15.663Z,100202.45
2017-09-01T22:06:41.752Z,100200.19
2017-09-01T22:09:07.878Z,100201.95
2017-09-01T22:11:34.087Z,100197.09
2017-09-01T22:14:00.192Z,100195.31
2017-09-01T22:16:26.282Z,100195.23
2017-09-01T22:18:53.048Z,100190.03
2017-09-01T22:21:19.176Z,100185.95
2017-09-01T22:23:45.380Z,100189.45
2017-09-01T22:26:11.472Z,100190.11
2017-09-01T22:28:37.585Z,100188.62
2017-09-01T22:31:03.732Z,100189.14
2017-09-01T22:33:29.895Z,100186.00
2017-09-01T22:35:56.198Z,100189.53
2017-09-01T22:38:22.630Z,100186.52
2017-09-01T22:40:48.731Z,100174.36
2017-09-01T22:43:14.864Z,100178.57
2017-09-01T22:45:40.992Z,100180.06
2017-09-01T22:48:07.137Z,100179.41
2017-09-01T22:50:33.207Z,100172.09
2017-09-01T22:52:59.609Z,100166.92
2017-09-01T22:55:25.696Z,100162.80
2017-09-01T22:57:51.813Z,100168.08
2017-09-01T23:00:23.899Z,100172.09
2017-09-01T23:02:50.015Z,100175.95
2017-09-01T23:05:16.144Z,100178.11
2017-09-01T23:07:42.222Z,100173.77
2017-09-01T23:10:08.327Z,100176.30
2017-09-01T23:12:34.416Z,100183.03
2017-09-01T23:15:00.686Z,100175.34
2017-09-01T23:17:26.756Z,100171.25
2017-09-01T23:19:52.900Z,100167.60
2017-09-01T23:22:19.011Z,100171.70
2017-09-01T23:24:45.148Z,100168.09
2017-09-01T23:27:11.296Z,100169.42
2017-09-01T23:29:37.376Z,100167.42
2017-09-01T23:32:03.459Z,100163.71
2017-09-01T23:34:29.604Z,100169.26
2017-09-01T23:36:55.969Z,100169.25
2017-09-01T23:39:22.962Z,100167.23
2017-09-01T23:41:49.040Z,100162.80
2017-09-01T23:44:15.136Z,100161.11
2017-09-01T23:46:41.217Z,100162.30
2017-09-01T23:49:07.311Z,100171.01
2017-09-01T23:51:33.373Z,100166.08
2017-09-01T23:53:59.489Z,100164.33
2017-09-01T23:56:25.573Z,100171.48
2017-09-01T23:58:51.664Z,100171.47
